Terminal Aerodrome Forecast
Issued by NWS San Angelo, TX

Home | Current Version | Previous Version | Text Only | Print | Product List | Glossary On
Versions: 1 2 3 4 5 6 7 8 9 10 11 12 13 14 15 16 17 18 19 20 21 22 23
211
FTUS44 KSJT 110109 AAA
TAFABI
TAF AMD
KABI 110109Z 1101/1124 18017G27KT P6SM BKN020
      TEMPO 1106/1110 BKN015
     FM111000 18018G28KT P6SM BKN015
      TEMPO 1111/1115 BKN020
     FM111500 21021G31KT P6SM SKC=

USA.gov is the U.S. government's official web portal to all federal, state and local government web resources and services.